Montclair, Colorado
Current Conditions -  °F | °C
As of 5:58 AM on Saturday 25 Oct 2014 (Local Time) from KBKF Reporting Station
Clear Clear  
Wind Chill: 53°   Ceiling: Unl
Heat Index: 53°   Visibility: 10mi
Dew Point: 21°   Wind: 8mph
Humidity: 29%   Direction: 220°SW
Pressure: 30.24"   Gusts: NA
Location:  39.732°N, 104.924°W
Report Text: KBKF 251158Z 22007KT 10SM CLR 11/M06 A3024 RMK AO2A SLP185 T01141061 10124 20098 53003
Loading
Personal Weather Stations






























Interactive Weather Map
Tropical Storm Tracking
New forecast layout! Learn more

10-Day Weather Forecast

Advertisements
Track Severe Weather on mobile